Flight Track Log - Related Links

Times and Time Zones

All times are in EDT time to prevent confusion due to time zone crossing. See the ASQ5958 flight status page for this flight to view local times or setup timezone preferences in your user account.

Time Position Orientation Groundspeed Altitude Reporting Facility
EDT Latitude Longitude Course Direction KTS MPH feet Rate Location/Type
Sat 05:52:03 PM 39.8833 -104.6167 90° East 181 208 6,200  Level Denver TRACON
Sat 05:53:03 PM 39.8833 -104.5333 90° East 229 264 8,200 1,800 Climbing Denver TRACON
Sat 05:54:03 PM 39.9167 -104.4333 66° East 284 327 9,800 1,400 Climbing Denver TRACON
Sat 05:55:03 PM 39.9333 -104.3333 78° East 327 376 11,000 1,569 Climbing Denver TRACON
Sat 05:56:13 PM 39.9614 -104.2003 75° East 334 384 13,200 1,727 Climbing Denver Center
Sat 05:57:15 PM 39.9825 -104.0625 79° East 362 417 14,800 1,561 Climbing Denver Center
Sat 05:58:16 PM 39.9958 -103.9256 83° East 379 436 16,400 1,561 Climbing Denver Center
Sat 05:59:18 PM 40.0192 -103.7822 78° East 399 459 18,000 1,500 Climbing Denver Center
Sat 06:00:20 PM 40.0408 -103.6447 78° East 394 453 19,500 1,512 Climbing Denver Center
Sat 06:01:21 PM 40.0664 -103.4944 77° East 416 479 21,100 1,561 Climbing Denver Center
Sat 06:02:23 PM 40.0911 -103.3417 78° East 426 490 22,700 1,500 Climbing Denver Center
Sat 06:03:25 PM 40.1203 -103.1606 78° East 432 497 24,200 1,268 Climbing Denver Center
Sat 06:04:26 PM 40.1453 -103.0011 78° East 442 509 25,300 1,122 Climbing Denver Center
Sat 06:05:28 PM 40.1697 -102.8381 79° East 452 520 26,500 1,161 Climbing Denver Center
Sat 06:06:30 PM 40.1947 -102.6778 78° East 450 518 27,700 1,122 Climbing Denver Center
Sat 06:07:31 PM 40.2192 -102.5247 78° East 450 518 28,800 1,171 Climbing Denver Center
Sat 06:08:33 PM 40.2447 -102.3475 79° East 444 511 30,100 1,161 Climbing Denver Center
Sat 06:09:35 PM 40.2694 -102.1953 78° East 448 516 31,200 1,171 Climbing Denver Center
Sat 06:10:36 PM 40.2953 -102.0161 79° East 450 518 32,500 1,171 Climbing Denver Center
Sat 06:11:38 PM 40.3183 -101.8625 79° East 451 519 33,600 971 Climbing Denver Center
Sat 06:12:52 PM 40.3442 -101.6833 79° East 450 518 34,700 568 Climbing Denver Center
Sat 06:14:06 PM 40.3792 -101.4489 79° East 459 528 35,000 132 Climbing Denver Center
Sat 06:15:08 PM 40.4022 -101.2842 80° East 479 551 35,000  Level Denver Center
Sat 06:16:09 PM 40.4261 -101.1183 79° East 485 558 35,000  Level Denver Center
Sat 06:17:11 PM 40.4528 -100.9258 80° East 483 556 35,000  Level Denver Center
Sat 06:18:12 PM 40.4744 -100.7628 80° East 479 551 35,000  Level Denver Center
Sat 06:19:14 PM 40.4983 -100.5783 80° East 467 537 35,000  Level Denver Center
Sat 06:20:16 PM 40.5183 -100.4197 81° East 464 534 35,000  Level Denver Center
Sat 06:21:17 PM 40.5419 -100.2333 80° East 466 536 35,000  Level Denver Center
Sat 06:22:19 PM 40.5622 -100.0686 81° East 478 550 35,000  Level Denver Center
Sat 06:23:20 PM 40.5861 -99.8747 81° East 482 555 35,000  Level Denver Center
Sat 06:24:22 PM 40.6092 -99.6911 81° East 491 565 35,000  Level Denver Center
Sat 06:25:24 PM 40.6297 -99.5125 81° East 494 568 35,000  Level Denver Center
Sat 06:26:25 PM 40.6503 -99.3350 81° East 493 567 35,000  Level Denver Center
Sat 06:27:27 PM 40.6714 -99.1569 81° East 495 570 35,000  Level Denver Center
Sat 06:28:20 PM 40.6878 -99.0172 81° East 492 566 35,000  Level Minneapolis Center
Sat 06:29:21 PM 40.7108 -98.8067 82° East 489 563 35,000  Level Minneapolis Center
Sat 06:30:23 PM 40.7297 -98.6297 82° East 491 565 35,000  Level Minneapolis Center
Sat 06:31:24 PM 40.7503 -98.4539 81° East 490 564 35,000  Level Minneapolis Center
Sat 06:32:26 PM 40.7686 -98.2764 82° East 492 566 35,000  Level Minneapolis Center
Sat 06:33:27 PM 40.7875 -98.0992 82° East 491 565 35,000  Level Minneapolis Center
Sat 06:34:28 PM 40.8064 -97.9233 82° East 488 562 35,000  Level Minneapolis Center
Sat 06:35:30 PM 40.8239 -97.7472 82° East 486 559 35,000  Level Minneapolis Center
Sat 06:36:31 PM 40.8453 -97.5350 82° East 488 562 35,000  Level Minneapolis Center
Sat 06:37:33 PM 40.8633 -97.3600 82° East 483 556 35,000  Level Minneapolis Center
Sat 06:38:34 PM 40.8789 -97.2008 83° East 477 549 35,000  Level Minneapolis Center
Sat 06:39:36 PM 40.8956 -97.0278 83° East 476 548 35,000 -49 Level Minneapolis Center
Sat 06:40:37 PM 40.9128 -96.8558 82° East 475 547 34,900 -780 Descending Minneapolis Center
Sat 06:41:39 PM 40.9372 -96.6544 81° East 466 536 33,400 -1,317 Descending Minneapolis Center
Sat 06:42:40 PM 40.9678 -96.4933 76° East 457 526 32,200 -1,180 Descending Minneapolis Center
Sat 06:43:41 PM 40.9975 -96.3244 77° East 468 539 31,000 -585 Descending Minneapolis Center
Sat 06:44:43 PM 41.0286 -96.1514 77° East 482 555 31,000  Level Minneapolis Center
Sat 06:45:44 PM 41.0586 -95.9758 77° East 492 566 31,000  Level Minneapolis Center
Sat 06:46:46 PM 41.0886 -95.7994 77° East 497 572 31,000 -878 Level Minneapolis Center
Sat 06:47:47 PM 41.1253 -95.5894 77° East 494 568 29,200 -1,902 Descending Minneapolis Center
Sat 06:48:49 PM 41.1542 -95.4236 77° East 474 545 27,100 -2,098 Descending Minneapolis Center
Sat 06:49:50 PM 41.1803 -95.2586 78° East 463 533 24,900 -2,133 Descending Minneapolis Center
Sat 06:51:04 PM 41.2114 -95.0731 77° East 438 504 22,300 -2,133 Descending Minneapolis Center
Sat 06:52:05 PM 41.2361 -94.9194 78° East 430 495 20,100 -2,244 Descending Minneapolis Center
Sat 06:53:07 PM 41.2611 -94.7706 77° East 418 481 17,700 -2,227 Descending Minneapolis Center
Sat 06:54:17 PM 41.2975 -94.5811 76° East 396 456 15,200 -1,707 Descending Minneapolis Center
Sat 06:55:10 PM 41.3103 -94.4692 81° East 394 453 14,200 -1,474 Descending Minneapolis Center
Sat 06:56:11 PM 41.3322 -94.3250 78° East 373 429 12,400 -1,721 Descending Minneapolis Center
Sat 06:57:19 PM 41.3617 -94.1686 76° East 355 409 10,500 -1,415 Descending Minneapolis Center
Sat 06:58:14 PM 41.3711 -94.0781 82° East 332 382 9,500 -1,241 Descending Minneapolis Center
Sat 06:59:15 PM 41.3894 -93.9611 78° East 303 349 8,100 -1,417 Descending Minneapolis Center
Sat 07:00:21 PM 41.4058 -93.8372 80° East 298 343 6,500 -1,415 Descending Minneapolis Center
Sat 07:01:18 PM 41.3933 -93.7492 101° East 283 326 5,200 -1,271 Descending Minneapolis Center
Sat 07:02:19 PM 41.4078 -93.6511 79° East 254 292 4,000 -1,024 Descending Minneapolis Center
Sat 07:03:21 PM 41.4578 -93.6025 36° Northeast 225 259 3,100 -976 Descending Minneapolis Center
Sat 07:04:22 PM 41.4997 -93.6072 355° North 155 178 2,000 -976 Descending Minneapolis Center
Sat 07:05:24 PM 41.5247 -93.6436 313° West 126 145 1,100 -537 Descending Minneapolis Center
Sat 07:06:25 PM 41.5442 -93.6717 313° West 125 144 900 -197 Descending Minneapolis Center

Login

Don't have an account? Register now (free) for customized features, flight alerts, and more!